Time;durP1;ratioP1;P1;durP2;ratioP2;P2;SDS_P1;SDS_P2;PMS_P1;PMS_P2;Temp;Humidity;BMP_temperature;BMP_pressure;BME280_temperature;BME280_humidity;BME280_pressure;Samples;Min_cycle;Max_cycle;Signal;HPM_P1;HPM_P2
2021/09/02 00:01:06;;;;;;;5.83;5.13;;;;;;;;;;5014197;28;20413;-68
2021/09/02 00:03:31;;;;;;;6.18;4.72;;;;;;;;;;5014014;28;20480;-68
2021/09/02 00:05:56;;;;;;;7.90;5.38;;;;;;;;;;5014281;28;20198;-68
2021/09/02 00:08:21;;;;;;;7.13;5.43;;;;;;;;;;5013645;28;20218;-68
2021/09/02 00:10:47;;;;;;;6.60;4.82;;;;;;;;;;5013884;28;20182;-69
2021/09/02 00:13:12;;;;;;;7.53;5.10;;;;;;;;;;5013854;28;20607;-69
2021/09/02 00:15:37;;;;;;;6.68;5.85;;;;;;;;;;5013896;28;20211;-69
2021/09/02 00:18:02;;;;;;;7.75;4.38;;;;;;;;;;5013587;28;20285;-68
2021/09/02 00:20:28;;;;;;;8.02;5.28;;;;;;;;;;5013045;28;20257;-69
2021/09/02 00:22:53;;;;;;;5.80;4.70;;;;;;;;;;5013730;28;20175;-69
2021/09/02 00:25:18;;;;;;;6.53;4.75;;;;;;;;;;4996158;28;20183;-69
2021/09/02 00:27:44;;;;;;;5.72;4.88;;;;;;;;;;4991486;28;20187;-69
2021/09/02 00:30:09;;;;;;;5.85;4.35;;;;;;;;;;5013450;28;20714;-68
2021/09/02 00:32:35;;;;;;;8.50;4.78;;;;;;;;;;5013608;28;20179;-69
2021/09/02 00:35:00;;;;;;;6.40;4.72;;;;;;;;;;5013194;28;20187;-69
2021/09/02 00:37:25;;;;;;;6.28;4.90;;;;;;;;;;5013827;28;20601;-69
2021/09/02 00:39:50;;;;;;;5.10;4.32;;;;;;;;;;5013298;28;20712;-68
2021/09/02 00:42:15;;;;;;;8.10;5.03;;;;;;;;;;5013520;28;20183;-68
2021/09/02 00:44:42;;;;;;;8.55;4.47;;;;;;;;;;5013545;28;20543;-68
2021/09/02 00:47:17;;;;;;;6.15;4.75;;;;;;;;;;4995713;28;20641;-68
2021/09/02 00:49:42;;;;;;;7.65;4.80;;;;;;;;;;5012727;28;20195;-68
2021/09/02 00:52:09;;;;;;;7.10;4.95;;;;;;;;;;5012915;28;20193;-68
2021/09/02 00:54:34;;;;;;;6.25;5.07;;;;;;;;;;5012440;28;20293;-68
2021/09/02 00:57:00;;;;;;;7.10;4.45;;;;;;;;;;5013070;28;20254;-68
2021/09/02 00:59:26;;;;;;;6.80;4.78;;;;;;;;;;5012512;28;20602;-69
2021/09/02 01:01:51;;;;;;;5.32;4.25;;;;;;;;;;5013015;28;20179;-68
2021/09/02 01:04:16;;;;;;;7.68;4.18;;;;;;;;;;5011909;28;20229;-68
2021/09/02 01:06:43;;;;;;;6.47;4.87;;;;;;;;;;5011069;28;20179;-68
2021/09/02 01:09:08;;;;;;;6.25;4.68;;;;;;;;;;5012398;28;20448;-69
2021/09/02 01:11:33;;;;;;;5.40;4.43;;;;;;;;;;5010560;28;20183;-67
2021/09/02 01:13:58;;;;;;;6.50;4.72;;;;;;;;;;5012539;28;20199;-68
2021/09/02 01:16:23;;;;;;;8.17;4.33;;;;;;;;;;5013334;28;20225;-69
2021/09/02 01:18:49;;;;;;;7.60;4.10;;;;;;;;;;5013355;28;20427;-69
2021/09/02 01:21:14;;;;;;;7.73;4.93;;;;;;;;;;5014772;28;20179;-68
2021/09/02 01:23:39;;;;;;;6.53;4.67;;;;;;;;;;5014139;28;20980;-69
2021/09/02 01:26:15;;;;;;;6.53;4.68;;;;;;;;;;5009788;28;20409;-69
2021/09/02 01:28:40;;;;;;;10.35;4.95;;;;;;;;;;5013796;28;20201;-69
2021/09/02 01:31:05;;;;;;;6.35;4.50;;;;;;;;;;5012885;28;20171;-68
2021/09/02 01:33:30;;;;;;;5.30;4.37;;;;;;;;;;5012483;28;20663;-68
2021/09/02 01:35:55;;;;;;;7.23;5.53;;;;;;;;;;5012777;28;20401;-68
2021/09/02 01:38:21;;;;;;;7.50;5.13;;;;;;;;;;5012223;28;20847;-68
2021/09/02 01:40:47;;;;;;;7.13;4.77;;;;;;;;;;5012956;28;20401;-68
2021/09/02 01:43:14;;;;;;;7.22;4.40;;;;;;;;;;4994696;28;20444;-68
2021/09/02 01:45:39;;;;;;;5.97;4.53;;;;;;;;;;5012474;28;20815;-68
2021/09/02 01:48:05;;;;;;;10.23;5.32;;;;;;;;;;5011802;28;20191;-68
2021/09/02 01:50:32;;;;;;;8.05;5.68;;;;;;;;;;5012544;28;20175;-68
2021/09/02 01:52:58;;;;;;;6.45;4.30;;;;;;;;;;4993962;28;20179;-68
2021/09/02 01:55:25;;;;;;;5.07;4.43;;;;;;;;;;5012278;28;20207;-69
2021/09/02 01:57:50;;;;;;;6.38;4.43;;;;;;;;;;5011627;28;20182;-69
2021/09/02 02:00:16;;;;;;;8.32;4.85;;;;;;;;;;5011550;28;20277;-68
2021/09/02 02:02:42;;;;;;;7.32;4.63;;;;;;;;;;5011967;28;20257;-69
2021/09/02 02:05:07;;;;;;;6.47;4.63;;;;;;;;;;5012048;28;20711;-68
2021/09/02 02:07:33;;;;;;;4.90;4.20;;;;;;;;;;5011905;28;20190;-69
2021/09/02 02:09:58;;;;;;;5.63;4.75;;;;;;;;;;5037740;23;20367;-71
2021/09/02 02:12:23;;;;;;;5.85;4.60;;;;;;;;;;5031239;28;20565;-71
2021/09/02 02:14:49;;;;;;;7.13;5.15;;;;;;;;;;5031131;28;20202;-72
2021/09/02 02:17:14;;;;;;;8.93;5.50;;;;;;;;;;5031420;28;20174;-71
2021/09/02 02:19:39;;;;;;;8.00;5.32;;;;;;;;;;5030677;28;20300;-71
2021/09/02 02:22:04;;;;;;;6.82;5.15;;;;;;;;;;5031523;28;20186;-72
2021/09/02 02:24:30;;;;;;;6.68;4.75;;;;;;;;;;5031285;28;20178;-72
2021/09/02 02:26:55;;;;;;;7.13;4.63;;;;;;;;;;5027009;28;20516;-71
2021/09/02 02:29:20;;;;;;;5.90;4.40;;;;;;;;;;5030823;28;20213;-72
2021/09/02 02:31:45;;;;;;;5.68;4.65;;;;;;;;;;5031330;28;20198;-72
2021/09/02 02:34:10;;;;;;;9.60;5.28;;;;;;;;;;5031182;28;20219;-72
2021/09/02 02:36:36;;;;;;;8.20;4.72;;;;;;;;;;5031275;28;20190;-71
2021/09/02 02:39:01;;;;;;;4.88;4.43;;;;;;;;;;5030631;28;20194;-71
2021/09/02 02:41:26;;;;;;;5.57;4.07;;;;;;;;;;5031122;28;20170;-71
2021/09/02 02:43:51;;;;;;;10.03;4.90;;;;;;;;;;5031150;28;20178;-71
2021/09/02 02:46:17;;;;;;;6.63;4.55;;;;;;;;;;5031206;28;20498;-70
2021/09/02 02:48:42;;;;;;;5.30;4.25;;;;;;;;;;5030480;28;20255;-71
2021/09/02 02:51:07;;;;;;;8.95;4.40;;;;;;;;;;5031684;28;20601;-71
2021/09/02 02:53:32;;;;;;;6.00;4.40;;;;;;;;;;5030005;28;20194;-71
2021/09/02 02:55:57;;;;;;;4.33;3.97;;;;;;;;;;5031095;28;20223;-71
2021/09/02 02:58:23;;;;;;;8.45;4.93;;;;;;;;;;5030845;28;20427;-70
2021/09/02 03:00:48;;;;;;;9.40;4.80;;;;;;;;;;5030937;28;20265;-72
2021/09/02 03:03:13;;;;;;;6.88;4.78;;;;;;;;;;5031043;28;20400;-71
2021/09/02 03:05:38;;;;;;;4.70;3.93;;;;;;;;;;5013243;28;20652;-72
2021/09/02 03:08:03;;;;;;;7.38;4.28;;;;;;;;;;5030974;28;20410;-71
2021/09/02 03:10:29;;;;;;;6.68;4.22;;;;;;;;;;5030526;28;20209;-71
2021/09/02 03:12:54;;;;;;;8.30;4.80;;;;;;;;;;5013173;28;20607;-71
2021/09/02 03:15:19;;;;;;;6.53;4.40;;;;;;;;;;5030550;28;20206;-72
2021/09/02 03:17:44;;;;;;;9.30;5.60;;;;;;;;;;5030924;28;20919;-71
2021/09/02 03:20:09;;;;;;;9.40;4.32;;;;;;;;;;5029708;28;20266;-71
2021/09/02 03:22:35;;;;;;;5.88;4.53;;;;;;;;;;5030730;28;20181;-72
2021/09/02 03:25:00;;;;;;;4.90;4.25;;;;;;;;;;5012934;28;20189;-71
2021/09/02 03:27:26;;;;;;;7.80;4.68;;;;;;;;;;5028078;28;20182;-71
2021/09/02 03:29:51;;;;;;;4.85;4.13;;;;;;;;;;5015681;28;20194;-72
2021/09/02 03:32:16;;;;;;;4.78;3.78;;;;;;;;;;5034630;28;20186;-71
2021/09/02 03:34:41;;;;;;;7.45;4.43;;;;;;;;;;5034462;28;20197;-69
2021/09/02 03:37:06;;;;;;;5.37;4.47;;;;;;;;;;5034524;28;20178;-71
2021/09/02 03:39:32;;;;;;;6.20;4.32;;;;;;;;;;5034007;28;20432;-72
2021/09/02 03:41:57;;;;;;;7.00;4.93;;;;;;;;;;5016645;28;20171;-72
2021/09/02 03:44:22;;;;;;;7.00;4.30;;;;;;;;;;5034323;28;20178;-71
2021/09/02 03:46:48;;;;;;;5.20;4.50;;;;;;;;;;5034643;28;20170;-71
2021/09/02 03:49:13;;;;;;;5.32;4.55;;;;;;;;;;5033378;28;20582;-71
2021/09/02 03:51:38;;;;;;;6.57;4.57;;;;;;;;;;5033851;28;20188;-69
2021/09/02 03:54:04;;;;;;;6.80;5.00;;;;;;;;;;5015385;28;20198;-72
2021/09/02 03:56:29;;;;;;;6.32;4.80;;;;;;;;;;5034044;28;20176;-69
2021/09/02 03:58:54;;;;;;;7.82;4.75;;;;;;;;;;5033457;28;20275;-72
2021/09/02 04:01:20;;;;;;;6.78;4.65;;;;;;;;;;5034076;28;20604;-71
2021/09/02 04:03:45;;;;;;;4.85;3.80;;;;;;;;;;5034093;28;20701;-71
2021/09/02 04:06:10;;;;;;;6.78;4.53;;;;;;;;;;5033890;28;20178;-71
2021/09/02 04:08:35;;;;;;;6.45;4.45;;;;;;;;;;5033581;28;20221;-71
2021/09/02 04:11:01;;;;;;;6.22;4.38;;;;;;;;;;5033679;28;20186;-72
2021/09/02 04:13:26;;;;;;;5.03;4.15;;;;;;;;;;5033943;28;20269;-72
2021/09/02 04:15:51;;;;;;;4.97;4.20;;;;;;;;;;5033704;28;20694;-71
2021/09/02 04:18:16;;;;;;;5.80;4.05;;;;;;;;;;5033252;28;20205;-71
2021/09/02 04:20:42;;;;;;;6.70;4.10;;;;;;;;;;5033300;28;20174;-71
2021/09/02 04:23:07;;;;;;;6.85;4.55;;;;;;;;;;5033836;28;20640;-71
2021/09/02 04:25:32;;;;;;;7.77;4.50;;;;;;;;;;5032230;28;20191;-71
2021/09/02 04:27:57;;;;;;;6.75;4.40;;;;;;;;;;5030081;28;20410;-71
2021/09/02 04:30:22;;;;;;;4.73;4.20;;;;;;;;;;5033021;28;20754;-71
2021/09/02 04:32:47;;;;;;;6.30;4.27;;;;;;;;;;5033517;28;20419;-71
2021/09/02 04:35:13;;;;;;;4.78;4.30;;;;;;;;;;5008029;28;21057;-71
2021/09/02 04:37:39;;;;;;;4.97;4.18;;;;;;;;;;5033291;28;20178;-71
2021/09/02 04:40:06;;;;;;;7.10;4.82;;;;;;;;;;5032851;28;20198;-72
2021/09/02 04:42:31;;;;;;;6.72;4.20;;;;;;;;;;5033466;28;20175;-71
2021/09/02 04:44:57;;;;;;;6.82;4.97;;;;;;;;;;5032394;28;20185;-71
2021/09/02 04:47:22;;;;;;;5.43;4.05;;;;;;;;;;5007241;28;20622;-71
2021/09/02 04:49:47;;;;;;;6.40;4.40;;;;;;;;;;5032340;28;20194;-71
2021/09/02 04:52:12;;;;;;;7.07;4.20;;;;;;;;;;5032842;28;20174;-71
2021/09/02 04:54:38;;;;;;;4.63;3.83;;;;;;;;;;5032136;28;20787;-71
2021/09/02 04:57:03;;;;;;;5.38;4.45;;;;;;;;;;5032938;28;20197;-71
2021/09/02 04:59:28;;;;;;;5.03;3.97;;;;;;;;;;5031339;28;20186;-70
2021/09/02 05:01:53;;;;;;;4.77;3.80;;;;;;;;;;5032880;28;20686;-70
2021/09/02 05:04:18;;;;;;;6.03;3.70;;;;;;;;;;5033292;28;20403;-71
2021/09/02 05:06:44;;;;;;;4.23;3.83;;;;;;;;;;5033185;28;20786;-70
2021/09/02 05:09:09;;;;;;;5.90;4.17;;;;;;;;;;5032439;28;20451;-71
2021/09/02 05:11:34;;;;;;;8.23;5.43;;;;;;;;;;5014790;28;20854;-71
2021/09/02 05:13:59;;;;;;;5.70;3.83;;;;;;;;;;5032647;28;20567;-71
2021/09/02 05:16:24;;;;;;;4.30;3.90;;;;;;;;;;5014753;28;20167;-71
2021/09/02 05:18:49;;;;;;;5.35;4.85;;;;;;;;;;5031564;28;20559;-71
2021/09/02 05:21:15;;;;;;;4.40;3.70;;;;;;;;;;5032337;28;20178;-71
2021/09/02 05:23:40;;;;;;;5.18;3.85;;;;;;;;;;5032504;28;20506;-70
2021/09/02 05:26:05;;;;;;;5.40;3.55;;;;;;;;;;5027771;28;20190;-71
2021/09/02 05:28:30;;;;;;;6.15;4.10;;;;;;;;;;5032269;28;20213;-72
2021/09/02 05:30:55;;;;;;;5.68;3.97;;;;;;;;;;5033240;28;20285;-71
2021/09/02 05:33:21;;;;;;;4.37;3.77;;;;;;;;;;5032666;28;20178;-71
2021/09/02 05:35:46;;;;;;;4.88;4.40;;;;;;;;;;5032373;28;20462;-71
2021/09/02 05:38:11;;;;;;;5.68;4.60;;;;;;;;;;5032213;28;20268;-71
2021/09/02 05:40:36;;;;;;;6.75;4.07;;;;;;;;;;5031968;28;20177;-72
2021/09/02 05:43:02;;;;;;;6.57;4.22;;;;;;;;;;5032454;28;20631;-71
2021/09/02 05:45:27;;;;;;;7.22;4.10;;;;;;;;;;5032089;28;20268;-71
2021/09/02 05:47:52;;;;;;;5.75;4.35;;;;;;;;;;5031554;28;20663;-71
2021/09/02 05:50:17;;;;;;;4.85;4.35;;;;;;;;;;5031060;28;20200;-71
2021/09/02 05:52:42;;;;;;;6.25;4.63;;;;;;;;;;5031243;28;20272;-71
2021/09/02 05:55:08;;;;;;;7.00;4.60;;;;;;;;;;5031652;28;20208;-71
2021/09/02 05:57:33;;;;;;;6.10;4.22;;;;;;;;;;5032033;28;20184;-71
2021/09/02 05:59:58;;;;;;;5.57;3.97;;;;;;;;;;5031059;28;20195;-70
2021/09/02 06:02:24;;;;;;;5.28;4.03;;;;;;;;;;5031817;28;20174;-71
2021/09/02 06:04:49;;;;;;;12.00;5.77;;;;;;;;;;5031662;28;20190;-71
2021/09/02 06:07:14;;;;;;;5.88;4.18;;;;;;;;;;5031515;28;20410;-72
2021/09/02 06:09:39;;;;;;;7.93;3.92;;;;;;;;;;5031148;28;20226;-71
2021/09/02 06:12:05;;;;;;;7.13;3.85;;;;;;;;;;4997276;28;20182;-71
2021/09/02 06:14:30;;;;;;;9.30;4.18;;;;;;;;;;5031552;28;20476;-71
2021/09/02 06:16:55;;;;;;;7.70;4.63;;;;;;;;;;5031297;28;20240;-71
2021/09/02 06:19:20;;;;;;;4.70;3.67;;;;;;;;;;5030570;28;20201;-71
2021/09/02 06:21:45;;;;;;;8.23;4.87;;;;;;;;;;5031506;28;20640;-71
2021/09/02 06:24:11;;;;;;;6.28;4.18;;;;;;;;;;5031444;28;20538;-70
2021/09/02 06:26:36;;;;;;;6.73;4.03;;;;;;;;;;5026748;28;20200;-71
2021/09/02 06:29:01;;;;;;;7.37;4.27;;;;;;;;;;5030776;28;20450;-69
2021/09/02 06:31:26;;;;;;;5.73;4.10;;;;;;;;;;5031460;28;20408;-69
2021/09/02 06:33:51;;;;;;;5.93;3.80;;;;;;;;;;5031365;28;20495;-69
2021/09/02 06:36:19;;;;;;;7.70;3.73;;;;;;;;;;5031474;28;20185;-72
2021/09/02 06:38:44;;;;;;;7.75;4.20;;;;;;;;;;5031371;28;20439;-70
2021/09/02 06:41:09;;;;;;;9.52;4.60;;;;;;;;;;5031396;28;20201;-70
2021/09/02 06:43:34;;;;;;;7.43;4.40;;;;;;;;;;5013512;28;20632;-70
2021/09/02 06:45:59;;;;;;;5.40;4.00;;;;;;;;;;5031174;28;20403;-69
2021/09/02 06:48:25;;;;;;;9.70;4.20;;;;;;;;;;5030227;28;21004;-70
2021/09/02 06:50:50;;;;;;;6.53;4.00;;;;;;;;;;5031427;28;20414;-70
2021/09/02 06:53:15;;;;;;;4.90;4.18;;;;;;;;;;5030548;28;20442;-70
2021/09/02 06:55:40;;;;;;;7.53;4.03;;;;;;;;;;5031670;28;20694;-69
2021/09/02 06:58:05;;;;;;;7.10;4.07;;;;;;;;;;5014498;28;20500;-69
2021/09/02 07:00:31;;;;;;;6.43;3.70;;;;;;;;;;5030874;28;20785;-70
2021/09/02 07:02:57;;;;;;;6.88;4.13;;;;;;;;;;5033933;28;20255;-70
2021/09/02 07:05:22;;;;;;;9.30;3.90;;;;;;;;;;5027110;28;20253;-71
2021/09/02 07:07:48;;;;;;;7.05;4.32;;;;;;;;;;5035024;28;20265;-70
2021/09/02 07:10:13;;;;;;;6.87;4.17;;;;;;;;;;5035231;28;20417;-70
2021/09/02 07:12:38;;;;;;;8.63;3.73;;;;;;;;;;5034932;28;20407;-71
2021/09/02 07:15:03;;;;;;;8.10;3.40;;;;;;;;;;5035101;28;20469;-71
2021/09/02 07:17:29;;;;;;;8.20;4.05;;;;;;;;;;5034610;28;20178;-71
2021/09/02 07:19:54;;;;;;;5.63;3.78;;;;;;;;;;5034161;28;20200;-71
2021/09/02 07:22:19;;;;;;;5.72;3.95;;;;;;;;;;5034465;28;20170;-70
2021/09/02 07:24:44;;;;;;;7.67;4.20;;;;;;;;;;5035074;28;20190;-70
2021/09/02 07:27:09;;;;;;;7.03;4.10;;;;;;;;;;5029926;28;20476;-70
2021/09/02 07:29:35;;;;;;;5.85;3.67;;;;;;;;;;5034328;28;20439;-71
2021/09/02 07:32:00;;;;;;;6.80;3.55;;;;;;;;;;5034593;28;20193;-71
2021/09/02 07:34:25;;;;;;;5.37;3.57;;;;;;;;;;5034718;28;20260;-70
2021/09/02 07:36:50;;;;;;;4.95;3.88;;;;;;;;;;5034423;28;20416;-70
2021/09/02 07:39:16;;;;;;;6.75;4.05;;;;;;;;;;5034165;28;20273;-70
2021/09/02 07:41:41;;;;;;;6.47;3.67;;;;;;;;;;5034508;28;20710;-70
2021/09/02 07:44:07;;;;;;;7.68;3.67;;;;;;;;;;5034649;28;20178;-71
2021/09/02 07:46:32;;;;;;;6.95;3.92;;;;;;;;;;5034477;28;20185;-69
2021/09/02 07:48:57;;;;;;;7.18;3.78;;;;;;;;;;5033429;28;20214;-69
2021/09/02 07:51:22;;;;;;;3.70;3.10;;;;;;;;;;5034319;28;20178;-70
2021/09/02 07:53:48;;;;;;;6.50;3.83;;;;;;;;;;5033068;28;20213;-69
2021/09/02 07:56:13;;;;;;;5.88;4.00;;;;;;;;;;5033892;28;20943;-70
2021/09/02 07:58:39;;;;;;;7.45;3.53;;;;;;;;;;5033949;28;20202;-70
2021/09/02 08:01:10;;;;;;;7.90;3.83;;;;;;;;;;5016058;28;20201;-69
2021/09/02 08:03:35;;;;;;;4.90;3.42;;;;;;;;;;5034214;28;20479;-70
2021/09/02 08:06:00;;;;;;;4.18;3.17;;;;;;;;;;5033864;28;20190;-69
2021/09/02 08:10:53;;;;;;;3.97;3.22;;;;;;;;;;4994870;28;20528;-73
2021/09/02 08:13:18;;;;;;;5.60;4.10;;;;;;;;;;4994666;28;20175;-72
2021/09/02 08:15:43;;;;;;;6.78;4.20;;;;;;;;;;4995993;28;20206;-72
2021/09/02 08:18:08;;;;;;;6.57;3.97;;;;;;;;;;4994732;28;20247;-73
2021/09/02 08:20:35;;;;;;;6.05;4.07;;;;;;;;;;4993735;28;20294;-72
2021/09/02 08:23:00;;;;;;;7.43;4.07;;;;;;;;;;4994110;28;20191;-72
2021/09/02 08:25:26;;;;;;;4.72;3.78;;;;;;;;;;4993834;28;20175;-72
2021/09/02 08:27:51;;;;;;;4.18;3.30;;;;;;;;;;4990107;28;20176;-72
2021/09/02 08:30:18;;;;;;;6.25;3.75;;;;;;;;;;4993460;28;20227;-73
2021/09/02 08:32:49;;;;;;;7.82;3.85;;;;;;;;;;4994214;28;20188;-72
2021/09/02 08:35:15;;;;;;;6.25;3.63;;;;;;;;;;4993983;28;20212;-72
2021/09/02 08:37:41;;;;;;;5.38;3.78;;;;;;;;;;4994091;28;20189;-72
2021/09/02 08:40:06;;;;;;;5.65;3.35;;;;;;;;;;4993571;28;20689;-73
2021/09/02 08:42:31;;;;;;;4.72;3.55;;;;;;;;;;4994096;28;20178;-72
2021/09/02 08:44:57;;;;;;;6.33;3.47;;;;;;;;;;4993867;28;20661;-72
2021/09/02 08:47:23;;;;;;;6.38;3.80;;;;;;;;;;4993701;28;20409;-72
2021/09/02 08:49:48;;;;;;;5.15;3.63;;;;;;;;;;4975773;28;20258;-72
2021/09/02 08:52:13;;;;;;;5.22;3.08;;;;;;;;;;4993489;28;20188;-73
2021/09/02 08:54:38;;;;;;;5.03;3.35;;;;;;;;;;4992931;28;20216;-72
2021/09/02 08:57:04;;;;;;;6.05;3.63;;;;;;;;;;4993886;28;20179;-72
2021/09/02 08:59:29;;;;;;;6.53;3.70;;;;;;;;;;4974255;28;20222;-72
2021/09/02 09:01:54;;;;;;;7.93;4.33;;;;;;;;;;4993792;28;20179;-72
2021/09/02 09:04:19;;;;;;;5.80;3.70;;;;;;;;;;4993658;28;20907;-72
2021/09/02 09:06:44;;;;;;;4.10;2.80;;;;;;;;;;4993536;28;20603;-73
2021/09/02 09:09:14;;;;;;;6.63;3.87;;;;;;;;;;4992732;28;20212;-72
2021/09/02 09:11:47;;;;;;;5.57;3.42;;;;;;;;;;4993486;28;20406;-73
2021/09/02 09:14:15;;;;;;;5.45;2.90;;;;;;;;;;4993237;28;20257;-73
2021/09/02 09:16:44;;;;;;;5.70;3.60;;;;;;;;;;4993412;28;20180;-72
2021/09/02 09:19:09;;;;;;;5.57;3.72;;;;;;;;;;4992187;28;20669;-73
2021/09/02 09:21:34;;;;;;;4.18;3.78;;;;;;;;;;4993403;28;20184;-72
2021/09/02 09:24:05;;;;;;;6.40;3.15;;;;;;;;;;4992212;28;20199;-73
2021/09/02 09:26:31;;;;;;;5.72;3.30;;;;;;;;;;4997049;28;20186;-72
2021/09/02 09:28:57;;;;;;;5.28;3.20;;;;;;;;;;4992381;28;20294;-72
2021/09/02 09:31:30;;;;;;;5.40;3.60;;;;;;;;;;4985069;28;20187;-72
2021/09/02 09:33:56;;;;;;;5.38;3.63;;;;;;;;;;4992747;28;20194;-73
2021/09/02 09:36:22;;;;;;;5.38;3.75;;;;;;;;;;4975493;28;20686;-72
2021/09/02 09:39:01;;;;;;;4.45;3.30;;;;;;;;;;4992542;28;20298;-72
2021/09/02 09:41:34;;;;;;;6.78;3.58;;;;;;;;;;4985444;28;20178;-73
2021/09/02 09:44:19;;;;;;;5.78;3.90;;;;;;;;;;4975196;28;20230;-72
2021/09/02 09:47:03;;;;;;;7.00;3.80;;;;;;;;;;4992031;28;20195;-73
2021/09/02 09:49:47;;;;;;;5.13;3.40;;;;;;;;;;4967576;28;20226;-73
2021/09/02 09:52:18;;;;;;;4.63;3.45;;;;;;;;;;4991304;28;20211;-72
2021/09/02 09:54:43;;;;;;;5.35;3.65;;;;;;;;;;4991579;28;20246;-72
2021/09/02 09:57:09;;;;;;;5.45;3.70;;;;;;;;;;4992613;28;20180;-72
2021/09/02 09:59:35;;;;;;;8.80;3.78;;;;;;;;;;4993118;28;20209;-72
2021/09/02 10:02:00;;;;;;;5.40;3.60;;;;;;;;;;4992531;28;20605;-72
2021/09/02 10:04:26;;;;;;;4.22;3.45;;;;;;;;;;4991338;28;20183;-72
2021/09/02 10:06:51;;;;;;;5.97;3.83;;;;;;;;;;4992634;28;20186;-72
2021/09/02 10:09:17;;;;;;;7.20;4.30;;;;;;;;;;4991797;28;20226;-72
2021/09/02 10:11:42;;;;;;;6.97;4.63;;;;;;;;;;4992843;28;20935;-72
2021/09/02 10:14:07;;;;;;;6.47;4.78;;;;;;;;;;4992121;28;20567;-72
2021/09/02 10:16:33;;;;;;;7.18;4.57;;;;;;;;;;4992609;28;20571;-72
2021/09/02 10:18:58;;;;;;;6.07;4.50;;;;;;;;;;4990641;28;20674;-72
2021/09/02 10:21:23;;;;;;;7.22;5.18;;;;;;;;;;4992526;28;20175;-72
2021/09/02 10:23:48;;;;;;;6.47;4.18;;;;;;;;;;4992065;28;20180;-73
2021/09/02 10:26:30;;;;;;;5.27;3.40;;;;;;;;;;4992407;28;20180;-73
2021/09/02 10:28:56;;;;;;;6.07;3.78;;;;;;;;;;4991308;28;20407;-71
2021/09/02 10:31:22;;;;;;;6.53;4.80;;;;;;;;;;4992014;28;20203;-70
2021/09/02 10:33:48;;;;;;;6.55;3.53;;;;;;;;;;4991157;28;20427;-70
2021/09/02 10:36:13;;;;;;;6.47;3.88;;;;;;;;;;4992792;28;20548;-70
2021/09/02 10:38:41;;;;;;;5.32;4.07;;;;;;;;;;4994706;28;20904;-70
2021/09/02 10:41:07;;;;;;;7.57;4.30;;;;;;;;;;4975333;28;20202;-70
2021/09/02 10:43:51;;;;;;;4.30;3.70;;;;;;;;;;4991374;28;20645;-70
2021/09/02 10:46:25;;;;;;;6.03;4.50;;;;;;;;;;4991332;28;20232;-70
2021/09/02 10:48:50;;;;;;;8.07;5.05;;;;;;;;;;4991217;28;20731;-71
2021/09/02 10:51:34;;;;;;;8.17;4.30;;;;;;;;;;4991858;28;20195;-70
2021/09/02 10:54:06;;;;;;;7.45;4.85;;;;;;;;;;4990776;28;20421;-70
2021/09/02 10:56:52;;;;;;;9.05;6.35;;;;;;;;;;4991820;28;20650;-70
2021/09/02 10:59:37;;;;;;;8.15;5.93;;;;;;;;;;4990393;28;20704;-71
2021/09/02 11:02:05;;;;;;;8.82;5.25;;;;;;;;;;4990859;28;20215;-70
2021/09/02 11:04:30;;;;;;;7.30;5.18;;;;;;;;;;4974094;28;20178;-70
2021/09/02 11:06:56;;;;;;;9.75;4.63;;;;;;;;;;4991771;28;20550;-70
2021/09/02 11:09:31;;;;;;;7.88;5.00;;;;;;;;;;4991012;28;20273;-70
2021/09/02 11:11:57;;;;;;;5.57;4.65;;;;;;;;;;4992186;28;20183;-70
2021/09/02 11:14:22;;;;;;;8.40;4.70;;;;;;;;;;4988996;28;20192;-70
2021/09/02 11:16:47;;;;;;;7.25;4.80;;;;;;;;;;4991819;28;20180;-71
2021/09/02 11:19:13;;;;;;;6.88;5.03;;;;;;;;;;4990786;28;20673;-70
2021/09/02 11:21:38;;;;;;;6.53;4.73;;;;;;;;;;4974453;28;20175;-70
2021/09/02 11:24:06;;;;;;;6.43;5.10;;;;;;;;;;4973911;28;20405;-72
2021/09/02 11:26:43;;;;;;;9.35;5.05;;;;;;;;;;4987084;28;20175;-70
2021/09/02 11:29:19;;;;;;;6.78;5.50;;;;;;;;;;4991093;28;20203;-70
2021/09/02 11:31:56;;;;;;;5.20;3.83;;;;;;;;;;4991520;28;20175;-70
2021/09/02 11:34:22;;;;;;;6.45;4.68;;;;;;;;;;4991422;28;20200;-70
2021/09/02 11:36:47;;;;;;;6.70;5.10;;;;;;;;;;4991588;28;20196;-71
2021/09/02 11:39:12;;;;;;;7.53;5.53;;;;;;;;;;4990917;28;20219;-70
2021/09/02 11:41:37;;;;;;;7.47;5.03;;;;;;;;;;4991450;28;20286;-70
2021/09/02 11:44:02;;;;;;;6.30;4.87;;;;;;;;;;4990888;28;20199;-71
2021/09/02 11:46:28;;;;;;;10.15;6.18;;;;;;;;;;4991217;28;20222;-71
2021/09/02 11:48:54;;;;;;;7.22;6.30;;;;;;;;;;4993729;28;20721;-70
2021/09/02 11:51:27;;;;;;;7.15;5.97;;;;;;;;;;4994713;28;20176;-70
2021/09/02 11:54:04;;;;;;;8.25;6.20;;;;;;;;;;4994215;28;20658;-70
2021/09/02 11:56:31;;;;;;;8.15;5.25;;;;;;;;;;4992719;28;20255;-73
2021/09/02 11:58:57;;;;;;;9.80;6.15;;;;;;;;;;4977012;28;20689;-70
2021/09/02 12:01:23;;;;;;;9.27;6.47;;;;;;;;;;4992943;28;20630;-70
2021/09/02 12:03:51;;;;;;;8.93;6.13;;;;;;;;;;4994981;28;20226;-70
2021/09/02 12:06:30;;;;;;;7.68;6.10;;;;;;;;;;4994583;28;20215;-70
2021/09/02 12:09:02;;;;;;;9.07;6.03;;;;;;;;;;4994567;28;20210;-70
2021/09/02 12:11:28;;;;;;;8.27;6.28;;;;;;;;;;4990618;28;20198;-72
2021/09/02 12:13:55;;;;;;;7.13;6.10;;;;;;;;;;4994537;28;20211;-71
2021/09/02 12:16:22;;;;;;;7.90;6.53;;;;;;;;;;4994354;28;20183;-71
2021/09/02 12:18:49;;;;;;;9.00;6.72;;;;;;;;;;4993899;28;20200;-71
2021/09/02 12:21:18;;;;;;;9.73;7.10;;;;;;;;;;4994243;28;20259;-71
2021/09/02 12:23:53;;;;;;;9.32;6.78;;;;;;;;;;4994623;28;20178;-71
2021/09/02 12:26:20;;;;;;;9.25;6.30;;;;;;;;;;4993552;28;20561;-71
2021/09/02 12:28:46;;;;;;;7.50;5.78;;;;;;;;;;4993981;28;20199;-71
2021/09/02 12:31:24;;;;;;;10.20;6.63;;;;;;;;;;4994186;28;20172;-71
2021/09/02 12:34:07;;;;;;;7.70;6.07;;;;;;;;;;4994395;28;20195;-71
2021/09/02 12:36:34;;;;;;;6.45;5.20;;;;;;;;;;4970087;28;20171;-71
2021/09/02 12:39:19;;;;;;;9.07;5.10;;;;;;;;;;4993694;28;20242;-71
2021/09/02 12:41:51;;;;;;;6.18;4.90;;;;;;;;;;4994220;28;20254;-71
2021/09/02 12:44:23;;;;;;;6.10;5.15;;;;;;;;;;4993533;28;20556;-71
2021/09/02 12:46:49;;;;;;;11.13;5.72;;;;;;;;;;4993717;28;20705;-71
2021/09/02 12:49:14;;;;;;;8.93;5.90;;;;;;;;;;4993673;28;20291;-71
2021/09/02 12:51:39;;;;;;;7.40;5.05;;;;;;;;;;4993687;28;20412;-71
2021/09/02 12:54:04;;;;;;;7.03;4.67;;;;;;;;;;4992868;28;20218;-71
2021/09/02 12:56:36;;;;;;;8.27;4.93;;;;;;;;;;4993836;28;20168;-71
2021/09/02 12:59:02;;;;;;;9.02;6.10;;;;;;;;;;4996494;28;20196;-71
2021/09/02 13:01:27;;;;;;;8.20;5.97;;;;;;;;;;4993386;28;20234;-71
2021/09/02 13:03:52;;;;;;;7.65;5.68;;;;;;;;;;4993744;28;20176;-71
2021/09/02 13:06:18;;;;;;;7.37;5.80;;;;;;;;;;4993275;28;20198;-71
2021/09/02 13:08:43;;;;;;;10.10;6.43;;;;;;;;;;4993224;28;20203;-71
2021/09/02 13:11:08;;;;;;;9.23;6.03;;;;;;;;;;4973462;28;20422;-71
2021/09/02 13:13:33;;;;;;;8.00;5.77;;;;;;;;;;4993836;28;20194;-71
2021/09/02 13:15:58;;;;;;;7.47;6.53;;;;;;;;;;4993477;28;20445;-71
2021/09/02 13:18:23;;;;;;;7.97;5.93;;;;;;;;;;4992895;28;20544;-71
2021/09/02 13:20:49;;;;;;;9.20;6.03;;;;;;;;;;4993221;28;20182;-71
2021/09/02 13:23:16;;;;;;;10.10;6.90;;;;;;;;;;4975969;28;20262;-71
2021/09/02 13:25:41;;;;;;;8.88;5.93;;;;;;;;;;4993065;28;20184;-71
2021/09/02 13:28:06;;;;;;;9.10;5.63;;;;;;;;;;4993226;28;20179;-71
2021/09/02 13:30:31;;;;;;;8.13;5.80;;;;;;;;;;4992673;28;20238;-71
2021/09/02 13:32:57;;;;;;;7.63;5.40;;;;;;;;;;4975653;28;20180;-71
2021/09/02 13:35:22;;;;;;;8.47;5.73;;;;;;;;;;4975322;28;20192;-71
2021/09/02 13:37:48;;;;;;;7.82;6.18;;;;;;;;;;4993171;28;20263;-71
2021/09/02 13:40:17;;;;;;;10.93;5.95;;;;;;;;;;4992537;28;20191;-71
2021/09/02 13:42:42;;;;;;;7.40;6.57;;;;;;;;;;4992927;28;20278;-71
2021/09/02 13:45:08;;;;;;;7.55;5.75;;;;;;;;;;4992715;28;20603;-71
2021/09/02 13:47:33;;;;;;;7.60;5.45;;;;;;;;;;4992718;28;20194;-71
2021/09/02 13:49:59;;;;;;;6.05;5.00;;;;;;;;;;4992349;28;20222;-71
2021/09/02 13:52:24;;;;;;;8.67;5.93;;;;;;;;;;4975185;28;20171;-71
2021/09/02 13:54:49;;;;;;;5.20;4.70;;;;;;;;;;4991892;28;20205;-71
2021/09/02 13:57:15;;;;;;;8.32;6.22;;;;;;;;;;4992713;28;20286;-71
2021/09/02 13:59:40;;;;;;;7.27;5.70;;;;;;;;;;4995218;28;20274;-71
2021/09/02 14:02:06;;;;;;;8.18;6.13;;;;;;;;;;4992237;28;20492;-71
2021/09/02 14:04:31;;;;;;;8.57;7.03;;;;;;;;;;4992502;28;20175;-71
2021/09/02 14:06:56;;;;;;;10.07;6.20;;;;;;;;;;4974815;28;20468;-71
2021/09/02 14:09:22;;;;;;;7.90;6.00;;;;;;;;;;5014431;23;20759;-69
2021/09/02 14:11:47;;;;;;;6.97;6.25;;;;;;;;;;5031508;28;20178;-70
2021/09/02 14:14:14;;;;;;;8.25;6.85;;;;;;;;;;5031766;28;20178;-71
2021/09/02 14:16:40;;;;;;;9.63;6.60;;;;;;;;;;5030368;28;20206;-69
2021/09/02 14:19:05;;;;;;;7.85;6.10;;;;;;;;;;5035720;28;20235;-70
2021/09/02 14:21:30;;;;;;;8.60;6.23;;;;;;;;;;5050414;28;20173;-69
2021/09/02 14:23:56;;;;;;;11.43;6.20;;;;;;;;;;5051689;28;20257;-69
2021/09/02 14:26:21;;;;;;;6.43;4.93;;;;;;;;;;5051434;28;20228;-69
2021/09/02 14:28:47;;;;;;;8.80;6.70;;;;;;;;;;5050918;28;20655;-69
2021/09/02 14:31:12;;;;;;;6.80;5.07;;;;;;;;;;5051260;28;20922;-68
2021/09/02 14:33:37;;;;;;;6.47;5.70;;;;;;;;;;5051503;28;20433;-68
2021/09/02 14:36:02;;;;;;;6.67;4.80;;;;;;;;;;5050928;28;20469;-69
2021/09/02 14:38:27;;;;;;;5.83;4.90;;;;;;;;;;5051166;28;20407;-68
2021/09/02 14:40:53;;;;;;;7.38;5.78;;;;;;;;;;5049990;28;20458;-69